Dutchtown, Missouri
Current Conditions -  °F | °C
As of 8:53 PM on Monday 20 Oct 2014 (Local Time) from KCGI Reporting Station
Clear Clear  
Wind Chill: 57°   Ceiling: Unl
Heat Index: 57°   Visibility: 10mi
Dew Point: 53°   Wind: 0mph
Humidity: 87%   Direction: NA
Pressure: 30"   Gusts: NA
Location:  37.25°N, 89.66°W
Report Text: KCGI 210153Z AUTO 00000KT 10SM CLR 14/12 A3000 RMK AO2 SLP157 T01390117 TSNO $
Loading
Personal Weather Stations






























Interactive Weather Map New forecast layout! Learn more

10-Day Weather Forecast

Advertisements
Track Severe Weather on mobile